地図

経路データ

SID SEASON NUMBER BASIN SUBBASIN NAME ISO_TIME NATURE LAT LON WMO_WIND WMO_PRES WMO_AGENCY TRACK_TYPE DIST2LAND LANDFALL IFLAG USA_AGENCY USA_ATCF_ID USA_LAT USA_LON USA_RECORD USA_STATUS USA_WIND USA_PRES USA_SSHS USA_R34_NE USA_R34_SE USA_R34_SW USA_R34_NW USA_R50_NE USA_R50_SE USA_R50_SW USA_R50_NW USA_R64_NE USA_R64_SE USA_R64_SW USA_R64_NW USA_POCI USA_ROCI USA_RMW USA_EYE TOKYO_LAT TOKYO_LON TOKYO_GRADE TOKYO_WIND TOKYO_PRES TOKYO_R50_DIR TOKYO_R50_LONG TOKYO_R50_SHORT TOKYO_R30_DIR TOKYO_R30_LONG TOKYO_R30_SHORT TOKYO_LAND CMA_LAT CMA_LON CMA_CAT CMA_WIND CMA_PRES HKO_LAT HKO_LON HKO_CAT HKO_WIND HKO_PRES NEWDELHI_LAT NEWDELHI_LON NEWDELHI_GRADE NEWDELHI_WIND NEWDELHI_PRES NEWDELHI_CI NEWDELHI_DP NEWDELHI_POCI REUNION_LAT REUNION_LON REUNION_TYPE REUNION_WIND REUNION_PRES REUNION_TNUM REUNION_CI REUNION_RMW REUNION_R34_NE REUNION_R34_SE REUNION_R34_SW REUNION_R34_NW REUNION_R50_NE REUNION_R50_SE REUNION_R50_SW REUNION_R50_NW REUNION_R64_NE REUNION_R64_SE REUNION_R64_SW REUNION_R64_NW BOM_LAT BOM_LON BOM_TYPE BOM_WIND BOM_PRES BOM_TNUM BOM_CI BOM_RMW BOM_R34_NE BOM_R34_SE BOM_R34_SW BOM_R34_NW BOM_R50_NE BOM_R50_SE BOM_R50_SW BOM_R50_NW BOM_R64_NE BOM_R64_SE BOM_R64_SW BOM_R64_NW BOM_ROCI BOM_POCI BOM_EYE BOM_POS_METHOD BOM_PRES_METHOD NADI_LAT NADI_LON NADI_CAT NADI_WIND NADI_PRES WELLINGTON_LAT WELLINGTON_LON WELLINGTON_WIND WELLINGTON_PRES DS824_LAT DS824_LON DS824_STAGE DS824_WIND DS824_PRES TD9636_LAT TD9636_LON TD9636_STAGE TD9636_WIND TD9636_PRES TD9635_LAT TD9635_LON TD9635_WIND TD9635_PRES TD9635_ROCI NEUMANN_LAT NEUMANN_LON NEUMANN_CLASS NEUMANN_WIND NEUMANN_PRES MLC_LAT MLC_LON MLC_CLASS MLC_WIND MLC_PRES USA_GUST BOM_GUST BOM_GUST_PER REUNION_GUST REUNION_GUST_PER USA_SEAHGT USA_SEARAD_NE USA_SEARAD_SE USA_SEARAD_SW USA_SEARAD_NW STORM_SPEED STORM_DIR
1909274N16128 1909 54 WP MM NOT_NAMED 1909-09-30 16:00:00 NR 16.1000 127.900 main 449 449 __________O___ -1 16.1000 127.900 7 2 337
1909274N16128 1909 54 WP MM NOT_NAMED 1909-09-30 18:00:00 NR 16.1514 127.887 main 455 455 __________P___ -1 16.1514 127.887 7 2 343
1909274N16128 1909 54 WP MM NOT_NAMED 1909-09-30 21:00:00 NR 16.2468 127.853 main 455 453 __________P___ -1 16.2468 127.853 7 3 338
1909274N16128 1909 54 WP MM NOT_NAMED 1909-10-01 00:00:00 NR 16.3890 127.784 main 459 458 __________P___ -1 16.3890 127.784 7 4 333
1909274N16128 1909 54 WP MM NOT_NAMED 1909-10-01 03:00:00 NR 16.6061 127.658 main 465 457 __________P___ -1 16.6061 127.658 7 5 330
1909274N16128 1909 54 WP MM NOT_NAMED 1909-10-01 04:00:00 NR 16.7000 127.600 main 464 464 __________O___ -1 16.7000 127.600 7 7 328
1909274N16128 1909 54 WP MM NOT_NAMED 1909-10-01 06:00:00 NR 16.9225 127.456 main 472 464 __________P___ -1 16.9225 127.456 7 9 326
1909274N16128 1909 54 WP MM NOT_NAMED 1909-10-01 09:00:00 NR 17.3196 127.171 main 482 463 __________P___ -1 17.3196 127.171 7 10 323
1909274N16128 1909 54 WP MM NOT_NAMED 1909-10-01 12:00:00 NR 17.7512 126.806 main 465 431 __________P___ -1 17.7512 126.806 7 12 318
1909274N16128 1909 54 WP MM NOT_NAMED 1909-10-01 15:00:00 NR 18.1709 126.364 main 433 411 __________P___ -1 18.1709 126.364 7 12 314
1909274N16128 1909 54 WP MM NOT_NAMED 1909-10-01 16:00:00 NR 18.3000 126.200 main 411 379 __________O___ -1 18.3000 126.200 7 12 308
1909274N16128 1909 54 WP MM NOT_NAMED 1909-10-01 18:00:00 NR 18.5245 125.886 main 379 329 __________P___ -1 18.5245 125.886 7 12 303
1909274N16128 1909 54 WP MM NOT_NAMED 1909-10-01 21:00:00 NR 18.8300 125.352 main 329 264 __________P___ -1 18.8300 125.352 7 12 298
1909274N16128 1909 54 WP MM NOT_NAMED 1909-10-02 00:00:00 NR 19.0985 124.741 main 264 205 __________P___ -1 19.0985 124.741 7 13 292
1909274N16128 1909 54 WP MM NOT_NAMED 1909-10-02 03:00:00 NR 19.3306 124.049 main 205 193 __________P___ -1 19.3306 124.049 7 14 289
1909274N16128 1909 54 WP MM NOT_NAMED 1909-10-02 04:00:00 NR 19.4000 123.800 main 193 161 __________O___ -1 19.4000 123.800 3 15 286
1909274N16128 1909 54 WP MM NOT_NAMED 1909-10-02 06:00:00 NR 19.5418 123.282 main 161 144 __________P___ -1 19.5418 123.282 3 16 284
1909274N16128 1909 54 WP MM NOT_NAMED 1909-10-02 09:00:00 NR 19.7232 122.436 main 145 145 __________P___ -1 19.7232 122.436 3 17 281
1909274N16128 1909 54 WP MM NOT_NAMED 1909-10-02 12:00:00 NR 19.8667 121.534 main 156 145 __________P___ -1 19.8667 121.534 3 17 278
1909274N16128 1909 54 WP MM NOT_NAMED 1909-10-02 15:00:00 NR 19.9728 120.609 main 158 158 __________P___ -1 19.9728 120.609 3 18 277
1909274N16128 1909 54 WP MM NOT_NAMED 1909-10-02 16:00:00 NR 20.0000 120.300 main 165 165 __________O___ -1 20.0000 120.300 4 18 275
1909274N16128 1909 54 WP MM NOT_NAMED 1909-10-02 18:00:00 NR 20.0558 119.677 main 203 209 __________P___ -1 20.0558 119.677 4 18 274
1909274N16128 1909 54 WP MM NOT_NAMED 1909-10-02 21:00:00 NR 20.1085 118.735 main 275 275 __________P___ -1 20.1085 118.735 4 17 272
1909274N16128 1909 54 WP MM NOT_NAMED 1909-10-03 00:00:00 NR 20.1260 117.818 main 340 315 __________P___ -1 20.1260 117.818 4 17 270
1909274N16128 1909 54 WP MM NOT_NAMED 1909-10-03 03:00:00 NR 20.1114 116.964 main 315 305 __________P___ -1 20.1114 116.964 4 16 269
1909274N16128 1909 54 WP MM NOT_NAMED 1909-10-03 04:00:00 NR 20.1000 116.700 main 305 293 __________O___ -1 20.1000 116.700 4 14 267
1909274N16128 1909 54 WP MM NOT_NAMED 1909-10-03 06:00:00 NR 20.0737 116.223 main 293 288 __________P___ -1 20.0737 116.223 4 13 265
1909274N16128 1909 54 WP MM NOT_NAMED 1909-10-03 09:00:00 NR 20.0104 115.577 main 288 270 __________P___ -1 20.0104 115.577 4 12 263
1909274N16128 1909 54 WP MM NOT_NAMED 1909-10-03 12:00:00 NR 19.9271 114.982 main 278 269 __________P___ -1 19.9271 114.982 4 11 261
1909274N16128 1909 54 WP MM NOT_NAMED 1909-10-03 15:00:00 NR 19.8326 114.398 main 276 265 __________P___ -1 19.8326 114.398 4 11 260
1909274N16128 1909 54 WP MM NOT_NAMED 1909-10-03 16:00:00 NR 19.8000 114.200 main 265 252 __________O___ -1 19.8000 114.200 4 13 261
1909274N16128 1909 54 WP MM NOT_NAMED 1909-10-03 18:00:00 NR 19.7368 113.736 main 256 209 __________P___ -1 19.7368 113.736 4 13 261
1909274N16128 1909 54 WP MM NOT_NAMED 1909-10-03 21:00:00 NR 19.6357 113.032 main 209 147 __________P___ -1 19.6357 113.032 4 13 261
1909274N16128 1909 54 WP MM NOT_NAMED 1909-10-04 00:00:00 NR 19.5318 112.361 main 147 86 __________P___ -1 19.5318 112.361 4 12 260
1909274N16128 1909 54 WP MM NOT_NAMED 1909-10-04 03:00:00 NR 19.4315 111.771 main 86 66 __________P___ -1 19.4315 111.771 4 11 260
1909274N16128 1909 54 WP MM NOT_NAMED 1909-10-04 04:00:00 NR 19.4000 111.600 main 66 45 __________O___ -1 19.4000 111.600 4 9 258
1909274N16128 1909 54 WP MM NOT_NAMED 1909-10-04 06:00:00 NR 19.3433 111.320 main 45 24 __________P___ -1 19.3433 111.320 4 7 257
1909274N16128 1909 54 WP MM NOT_NAMED 1909-10-04 09:00:00 NR 19.2654 110.989 main 24 15 __________P___ -1 19.2654 110.989 4 6 255
1909274N16128 1909 54 WP MM NOT_NAMED 1909-10-04 12:00:00 NR 19.1933 110.724 main 15 0 __________P___ -1 19.1933 110.724 4 5 253
1909274N16128 1909 54 WP MM NOT_NAMED 1909-10-04 15:00:00 NR 19.1234 110.483 main 0 0 __________P___ -1 19.1234 110.483 4 5 253
1909274N16128 1909 54 WP MM NOT_NAMED 1909-10-04 16:00:00 NR 19.1000 110.400 main 0 0 __________O___ -1 19.1000 110.400 4 5 254
1909274N16128 1909 54 WP MM NOT_NAMED 1909-10-04 18:00:00 NR 19.0523 110.224 main 0 0 __________P___ -1 19.0523 110.224 4 5 255
1909274N16128 1909 54 WP MM NOT_NAMED 1909-10-04 21:00:00 NR 18.9786 109.935 main 0 0 __________P___ -1 18.9786 109.935 4 6 255
1909274N16128 1909 54 WP MM NOT_NAMED 1909-10-05 00:00:00 NR 18.9029 109.627 main 0 0 __________P___ -1 18.9029 109.627 4 6 256
1909274N16128 1909 54 WP MM NOT_NAMED 1909-10-05 03:00:00 NR 18.8259 109.308 main 0 0 __________P___ -1 18.8259 109.308 4 6 256
1909274N16128 1909 54 WP MM NOT_NAMED 1909-10-05 04:00:00 NR 18.8000 109.200 main 0 __________O___ -1 18.8000 109.200 7 6 256

デジタル台風データ・検索

IBTrACS Databaseについて

本データベースは、米国NOAAが公開する1842年以降の世界の熱帯低気圧のベストトラックデータアーカイブInternational Best Track Archive for Climate Stewardship (IBTrACS)を、ウェブで閲覧しやすい形式に変換したものです。

最終更新日:2021-10-08